Preflight/Weather

The current temperature at Deer Valley airport is 38°C  or 100°F

Deer Valley Metar:

KDVT 202053Z VRB03KT 10SM CLR 38/06 A2985 RMK AO2 SLP081 T03780056 58022

Terminal Area Forecast for Phoenix:

TAF AMD KPHX 202042Z 2021/2124 30006KT P6SM SCT140 TEMPO 2021/2024 VRB05KT FM210700 12005KT P6SM BKN140 FM212100 VRB06KT P6SM SCT120